sensor_id;sensor_type;location;lat;lon;timestamp;P1;durP1;ratioP1;P2;durP2;ratioP2
59109;SDS011;44895;47.438;18.978;2023-05-10T00:00:18;6.70;;;2.80;;
59109;SDS011;44895;47.438;18.978;2023-05-10T00:03:21;7.40;;;3.17;;
59109;SDS011;44895;47.438;18.978;2023-05-10T00:06:25;6.53;;;2.85;;
59109;SDS011;44895;47.438;18.978;2023-05-10T00:09:29;7.57;;;3.22;;
59109;SDS011;44895;47.438;18.978;2023-05-10T00:12:32;6.93;;;2.97;;
59109;SDS011;44895;47.438;18.978;2023-05-10T00:15:36;4.95;;;2.38;;
59109;SDS011;44895;47.438;18.978;2023-05-10T00:18:39;8.65;;;4.18;;
59109;SDS011;44895;47.438;18.978;2023-05-10T00:21:43;7.82;;;3.42;;
59109;SDS011;44895;47.438;18.978;2023-05-10T00:24:47;6.38;;;2.75;;
59109;SDS011;44895;47.438;18.978;2023-05-10T00:27:51;7.82;;;2.67;;
59109;SDS011;44895;47.438;18.978;2023-05-10T00:30:54;6.22;;;2.92;;
59109;SDS011;44895;47.438;18.978;2023-05-10T00:33:58;8.23;;;4.25;;
59109;SDS011;44895;47.438;18.978;2023-05-10T00:37:02;7.35;;;3.17;;
59109;SDS011;44895;47.438;18.978;2023-05-10T00:40:05;6.10;;;2.65;;
59109;SDS011;44895;47.438;18.978;2023-05-10T00:43:10;6.50;;;3.00;;
59109;SDS011;44895;47.438;18.978;2023-05-10T00:46:14;8.48;;;2.80;;
59109;SDS011;44895;47.438;18.978;2023-05-10T00:49:19;11.98;;;3.85;;
59109;SDS011;44895;47.438;18.978;2023-05-10T00:52:24;6.82;;;3.50;;
59109;SDS011;44895;47.438;18.978;2023-05-10T00:55:28;8.02;;;3.10;;
59109;SDS011;44895;47.438;18.978;2023-05-10T00:58:33;11.77;;;3.03;;
59109;SDS011;44895;47.438;18.978;2023-05-10T01:01:37;7.82;;;3.03;;
59109;SDS011;44895;47.438;18.978;2023-05-10T01:04:42;9.40;;;3.75;;
59109;SDS011;44895;47.438;18.978;2023-05-10T01:07:46;6.22;;;2.58;;
59109;SDS011;44895;47.438;18.978;2023-05-10T01:10:50;9.25;;;3.30;;
59109;SDS011;44895;47.438;18.978;2023-05-10T01:13:57;5.85;;;2.78;;
59109;SDS011;44895;47.438;18.978;2023-05-10T01:20:06;6.90;;;3.13;;
59109;SDS011;44895;47.438;18.978;2023-05-10T01:33:10;5.70;;;2.42;;
59109;SDS011;44895;47.438;18.978;2023-05-10T01:39:45;7.45;;;3.17;;
59109;SDS011;44895;47.438;18.978;2023-05-10T01:42:56;7.75;;;3.17;;
59109;SDS011;44895;47.438;18.978;2023-05-10T01:46:06;6.85;;;2.60;;
59109;SDS011;44895;47.438;18.978;2023-05-10T01:49:18;6.32;;;2.88;;
59109;SDS011;44895;47.438;18.978;2023-05-10T01:52:30;7.45;;;3.00;;
59109;SDS011;44895;47.438;18.978;2023-05-10T01:55:42;8.85;;;3.17;;
59109;SDS011;44895;47.438;18.978;2023-05-10T01:58:50;8.18;;;3.05;;
59109;SDS011;44895;47.438;18.978;2023-05-10T02:01:57;6.97;;;2.72;;
59109;SDS011;44895;47.438;18.978;2023-05-10T02:05:04;8.45;;;2.90;;
59109;SDS011;44895;47.438;18.978;2023-05-10T02:08:09;7.05;;;3.00;;
59109;SDS011;44895;47.438;18.978;2023-05-10T02:11:14;8.77;;;3.20;;
59109;SDS011;44895;47.438;18.978;2023-05-10T02:14:18;8.48;;;3.15;;
59109;SDS011;44895;47.438;18.978;2023-05-10T02:17:23;8.52;;;2.70;;
59109;SDS011;44895;47.438;18.978;2023-05-10T02:20:29;9.23;;;3.65;;
59109;SDS011;44895;47.438;18.978;2023-05-10T02:23:35;5.60;;;2.33;;
59109;SDS011;44895;47.438;18.978;2023-05-10T02:26:40;5.90;;;2.83;;
59109;SDS011;44895;47.438;18.978;2023-05-10T02:29:45;6.68;;;2.67;;
59109;SDS011;44895;47.438;18.978;2023-05-10T02:32:50;7.72;;;3.42;;
59109;SDS011;44895;47.438;18.978;2023-05-10T02:35:55;6.03;;;3.17;;
59109;SDS011;44895;47.438;18.978;2023-05-10T02:39:00;5.68;;;2.95;;
59109;SDS011;44895;47.438;18.978;2023-05-10T02:42:05;7.00;;;2.75;;
59109;SDS011;44895;47.438;18.978;2023-05-10T02:45:13;5.55;;;2.78;;
59109;SDS011;44895;47.438;18.978;2023-05-10T02:48:33;7.55;;;3.00;;
59109;SDS011;44895;47.438;18.978;2023-05-10T02:51:37;6.78;;;2.72;;
59109;SDS011;44895;47.438;18.978;2023-05-10T02:54:45;6.57;;;2.95;;
59109;SDS011;44895;47.438;18.978;2023-05-10T02:57:58;6.53;;;3.28;;
59109;SDS011;44895;47.438;18.978;2023-05-10T03:01:03;7.68;;;3.55;;
59109;SDS011;44895;47.438;18.978;2023-05-10T03:04:07;7.35;;;3.95;;
59109;SDS011;44895;47.438;18.978;2023-05-10T03:07:11;6.28;;;2.83;;
59109;SDS011;44895;47.438;18.978;2023-05-10T03:10:16;7.95;;;4.20;;
59109;SDS011;44895;47.438;18.978;2023-05-10T03:16:52;7.35;;;3.30;;
59109;SDS011;44895;47.438;18.978;2023-05-10T03:20:10;6.65;;;2.90;;
59109;SDS011;44895;47.438;18.978;2023-05-10T03:23:34;6.35;;;2.80;;
59109;SDS011;44895;47.438;18.978;2023-05-10T03:26:40;7.00;;;2.72;;
59109;SDS011;44895;47.438;18.978;2023-05-10T03:29:52;5.95;;;3.10;;
59109;SDS011;44895;47.438;18.978;2023-05-10T03:32:57;7.47;;;2.80;;
59109;SDS011;44895;47.438;18.978;2023-05-10T03:36:02;8.93;;;3.90;;
59109;SDS011;44895;47.438;18.978;2023-05-10T03:39:06;7.85;;;3.38;;
59109;SDS011;44895;47.438;18.978;2023-05-10T03:42:10;10.57;;;3.08;;
59109;SDS011;44895;47.438;18.978;2023-05-10T03:45:15;9.05;;;3.53;;
59109;SDS011;44895;47.438;18.978;2023-05-10T03:48:19;8.20;;;3.55;;
59109;SDS011;44895;47.438;18.978;2023-05-10T03:51:23;9.07;;;4.38;;
59109;SDS011;44895;47.438;18.978;2023-05-10T03:54:31;11.00;;;4.53;;
59109;SDS011;44895;47.438;18.978;2023-05-10T03:57:36;8.10;;;4.65;;
59109;SDS011;44895;47.438;18.978;2023-05-10T04:00:39;6.50;;;3.35;;
59109;SDS011;44895;47.438;18.978;2023-05-10T04:03:50;7.70;;;3.88;;
59109;SDS011;44895;47.438;18.978;2023-05-10T04:06:54;11.98;;;4.28;;
59109;SDS011;44895;47.438;18.978;2023-05-10T04:09:58;6.32;;;3.05;;
59109;SDS011;44895;47.438;18.978;2023-05-10T04:13:02;13.88;;;3.83;;
59109;SDS011;44895;47.438;18.978;2023-05-10T04:16:06;9.15;;;4.03;;
59109;SDS011;44895;47.438;18.978;2023-05-10T04:19:10;10.55;;;4.60;;
59109;SDS011;44895;47.438;18.978;2023-05-10T04:22:14;8.93;;;4.18;;
59109;SDS011;44895;47.438;18.978;2023-05-10T04:25:17;8.98;;;3.47;;
59109;SDS011;44895;47.438;18.978;2023-05-10T04:28:21;7.70;;;3.60;;
59109;SDS011;44895;47.438;18.978;2023-05-10T04:31:25;6.72;;;3.55;;
59109;SDS011;44895;47.438;18.978;2023-05-10T04:34:29;7.45;;;3.78;;
59109;SDS011;44895;47.438;18.978;2023-05-10T04:37:33;13.98;;;4.80;;
59109;SDS011;44895;47.438;18.978;2023-05-10T04:40:37;8.95;;;4.53;;
59109;SDS011;44895;47.438;18.978;2023-05-10T04:43:41;9.90;;;4.03;;
59109;SDS011;44895;47.438;18.978;2023-05-10T04:46:45;8.63;;;4.80;;
59109;SDS011;44895;47.438;18.978;2023-05-10T04:49:49;7.72;;;4.00;;
59109;SDS011;44895;47.438;18.978;2023-05-10T04:52:52;6.80;;;3.47;;
59109;SDS011;44895;47.438;18.978;2023-05-10T04:55:56;10.98;;;3.70;;
59109;SDS011;44895;47.438;18.978;2023-05-10T04:59:00;6.57;;;3.47;;
59109;SDS011;44895;47.438;18.978;2023-05-10T05:02:04;11.50;;;4.70;;
59109;SDS011;44895;47.438;18.978;2023-05-10T05:05:08;7.43;;;3.47;;
59109;SDS011;44895;47.438;18.978;2023-05-10T05:08:12;9.82;;;4.10;;
59109;SDS011;44895;47.438;18.978;2023-05-10T05:11:17;6.85;;;3.67;;
59109;SDS011;44895;47.438;18.978;2023-05-10T05:14:21;7.68;;;3.65;;
59109;SDS011;44895;47.438;18.978;2023-05-10T05:17:25;8.18;;;3.97;;
59109;SDS011;44895;47.438;18.978;2023-05-10T05:20:31;9.65;;;4.32;;
59109;SDS011;44895;47.438;18.978;2023-05-10T05:23:36;9.00;;;4.47;;
59109;SDS011;44895;47.438;18.978;2023-05-10T05:26:40;10.30;;;4.32;;
59109;SDS011;44895;47.438;18.978;2023-05-10T05:29:44;6.35;;;3.25;;
59109;SDS011;44895;47.438;18.978;2023-05-10T05:32:47;8.50;;;4.10;;
59109;SDS011;44895;47.438;18.978;2023-05-10T05:35:51;8.68;;;4.82;;
59109;SDS011;44895;47.438;18.978;2023-05-10T05:38:55;7.85;;;4.35;;
59109;SDS011;44895;47.438;18.978;2023-05-10T05:41:58;11.10;;;3.83;;
59109;SDS011;44895;47.438;18.978;2023-05-10T05:45:02;9.80;;;4.18;;
59109;SDS011;44895;47.438;18.978;2023-05-10T05:48:06;8.90;;;4.05;;
59109;SDS011;44895;47.438;18.978;2023-05-10T05:51:10;8.52;;;3.75;;
59109;SDS011;44895;47.438;18.978;2023-05-10T05:54:13;9.32;;;4.07;;
59109;SDS011;44895;47.438;18.978;2023-05-10T05:57:17;9.07;;;3.70;;
59109;SDS011;44895;47.438;18.978;2023-05-10T06:00:21;8.63;;;3.60;;
59109;SDS011;44895;47.438;18.978;2023-05-10T06:03:25;7.22;;;3.35;;
59109;SDS011;44895;47.438;18.978;2023-05-10T06:06:29;7.75;;;3.10;;
59109;SDS011;44895;47.438;18.978;2023-05-10T06:09:33;6.00;;;3.78;;
59109;SDS011;44895;47.438;18.978;2023-05-10T06:12:37;5.32;;;2.90;;
59109;SDS011;44895;47.438;18.978;2023-05-10T06:15:41;7.10;;;3.70;;
59109;SDS011;44895;47.438;18.978;2023-05-10T06:18:44;5.65;;;2.65;;
59109;SDS011;44895;47.438;18.978;2023-05-10T06:21:48;9.73;;;3.03;;
59109;SDS011;44895;47.438;18.978;2023-05-10T06:24:52;7.75;;;2.70;;
59109;SDS011;44895;47.438;18.978;2023-05-10T06:27:56;8.43;;;3.45;;
59109;SDS011;44895;47.438;18.978;2023-05-10T06:31:01;5.75;;;3.00;;
59109;SDS011;44895;47.438;18.978;2023-05-10T06:34:05;6.40;;;2.80;;
59109;SDS011;44895;47.438;18.978;2023-05-10T06:37:11;6.75;;;3.55;;
59109;SDS011;44895;47.438;18.978;2023-05-10T06:40:14;5.88;;;3.10;;
59109;SDS011;44895;47.438;18.978;2023-05-10T06:43:18;5.90;;;3.25;;
59109;SDS011;44895;47.438;18.978;2023-05-10T06:46:22;3.78;;;2.22;;
59109;SDS011;44895;47.438;18.978;2023-05-10T06:49:26;5.57;;;3.15;;
59109;SDS011;44895;47.438;18.978;2023-05-10T06:52:30;7.40;;;3.03;;
59109;SDS011;44895;47.438;18.978;2023-05-10T06:55:33;9.57;;;3.78;;
59109;SDS011;44895;47.438;18.978;2023-05-10T06:58:37;6.28;;;2.92;;
59109;SDS011;44895;47.438;18.978;2023-05-10T07:01:41;5.93;;;3.25;;
59109;SDS011;44895;47.438;18.978;2023-05-10T07:04:46;6.25;;;3.53;;
59109;SDS011;44895;47.438;18.978;2023-05-10T07:07:50;5.90;;;2.92;;
59109;SDS011;44895;47.438;18.978;2023-05-10T07:10:59;6.57;;;3.25;;
59109;SDS011;44895;47.438;18.978;2023-05-10T07:14:13;9.77;;;3.13;;
59109;SDS011;44895;47.438;18.978;2023-05-10T07:17:17;6.97;;;3.22;;
59109;SDS011;44895;47.438;18.978;2023-05-10T07:20:20;6.05;;;2.75;;
59109;SDS011;44895;47.438;18.978;2023-05-10T07:23:24;6.72;;;2.88;;
59109;SDS011;44895;47.438;18.978;2023-05-10T07:26:28;6.25;;;2.58;;
59109;SDS011;44895;47.438;18.978;2023-05-10T07:29:33;6.85;;;3.20;;
59109;SDS011;44895;47.438;18.978;2023-05-10T07:32:36;7.18;;;2.90;;
59109;SDS011;44895;47.438;18.978;2023-05-10T07:35:40;6.93;;;3.42;;
59109;SDS011;44895;47.438;18.978;2023-05-10T07:38:44;4.85;;;2.20;;
59109;SDS011;44895;47.438;18.978;2023-05-10T07:41:48;8.93;;;3.58;;
59109;SDS011;44895;47.438;18.978;2023-05-10T07:44:52;7.65;;;3.72;;
59109;SDS011;44895;47.438;18.978;2023-05-10T07:47:55;6.72;;;3.63;;
59109;SDS011;44895;47.438;18.978;2023-05-10T07:50:59;7.50;;;2.95;;
59109;SDS011;44895;47.438;18.978;2023-05-10T07:54:03;7.20;;;4.00;;
59109;SDS011;44895;47.438;18.978;2023-05-10T07:57:06;5.72;;;2.38;;
59109;SDS011;44895;47.438;18.978;2023-05-10T08:00:12;5.53;;;2.30;;
59109;SDS011;44895;47.438;18.978;2023-05-10T08:03:16;5.30;;;2.67;;
59109;SDS011;44895;47.438;18.978;2023-05-10T08:06:20;8.70;;;3.60;;
59109;SDS011;44895;47.438;18.978;2023-05-10T08:09:25;4.53;;;2.35;;
59109;SDS011;44895;47.438;18.978;2023-05-10T08:12:29;8.55;;;3.42;;
59109;SDS011;44895;47.438;18.978;2023-05-10T08:15:33;6.13;;;2.95;;
59109;SDS011;44895;47.438;18.978;2023-05-10T08:18:37;5.68;;;2.90;;
59109;SDS011;44895;47.438;18.978;2023-05-10T08:21:41;6.60;;;2.58;;
59109;SDS011;44895;47.438;18.978;2023-05-10T08:24:45;8.48;;;3.00;;
59109;SDS011;44895;47.438;18.978;2023-05-10T08:27:49;7.68;;;3.22;;
59109;SDS011;44895;47.438;18.978;2023-05-10T08:30:53;7.93;;;3.53;;
59109;SDS011;44895;47.438;18.978;2023-05-10T08:33:57;5.95;;;3.30;;
59109;SDS011;44895;47.438;18.978;2023-05-10T08:37:01;17.70;;;3.65;;
59109;SDS011;44895;47.438;18.978;2023-05-10T08:40:05;9.32;;;3.75;;
59109;SDS011;44895;47.438;18.978;2023-05-10T08:43:10;7.80;;;2.88;;
59109;SDS011;44895;47.438;18.978;2023-05-10T08:46:16;6.45;;;3.13;;
59109;SDS011;44895;47.438;18.978;2023-05-10T08:49:21;6.03;;;2.97;;
59109;SDS011;44895;47.438;18.978;2023-05-10T08:52:27;6.78;;;2.95;;
59109;SDS011;44895;47.438;18.978;2023-05-10T08:55:33;5.18;;;2.58;;
59109;SDS011;44895;47.438;18.978;2023-05-10T08:58:37;6.28;;;2.60;;
59109;SDS011;44895;47.438;18.978;2023-05-10T09:01:42;6.45;;;2.38;;
59109;SDS011;44895;47.438;18.978;2023-05-10T09:04:47;6.63;;;2.42;;
59109;SDS011;44895;47.438;18.978;2023-05-10T09:07:52;10.60;;;2.53;;
59109;SDS011;44895;47.438;18.978;2023-05-10T09:10:56;8.25;;;2.90;;
59109;SDS011;44895;47.438;18.978;2023-05-10T09:14:01;7.78;;;3.03;;
59109;SDS011;44895;47.438;18.978;2023-05-10T09:17:06;6.57;;;2.85;;
59109;SDS011;44895;47.438;18.978;2023-05-10T09:20:10;5.57;;;2.85;;
59109;SDS011;44895;47.438;18.978;2023-05-10T09:23:14;6.03;;;2.70;;
59109;SDS011;44895;47.438;18.978;2023-05-10T09:26:17;10.82;;;3.40;;
59109;SDS011;44895;47.438;18.978;2023-05-10T09:29:25;9.00;;;2.88;;
59109;SDS011;44895;47.438;18.978;2023-05-10T09:32:39;6.03;;;2.70;;
59109;SDS011;44895;47.438;18.978;2023-05-10T09:35:43;5.53;;;3.03;;
59109;SDS011;44895;47.438;18.978;2023-05-10T09:38:48;4.65;;;2.35;;
59109;SDS011;44895;47.438;18.978;2023-05-10T09:41:54;6.63;;;2.83;;
59109;SDS011;44895;47.438;18.978;2023-05-10T09:45:02;6.00;;;2.42;;
59109;SDS011;44895;47.438;18.978;2023-05-10T09:48:09;6.28;;;2.88;;
59109;SDS011;44895;47.438;18.978;2023-05-10T09:54:23;7.05;;;2.60;;
59109;SDS011;44895;47.438;18.978;2023-05-10T09:57:27;5.82;;;2.38;;
59109;SDS011;44895;47.438;18.978;2023-05-10T10:00:35;6.70;;;2.25;;
59109;SDS011;44895;47.438;18.978;2023-05-10T10:03:43;6.82;;;2.90;;
59109;SDS011;44895;47.438;18.978;2023-05-10T10:06:58;5.40;;;2.28;;
59109;SDS011;44895;47.438;18.978;2023-05-10T10:10:03;5.22;;;2.20;;
59109;SDS011;44895;47.438;18.978;2023-05-10T10:13:08;6.97;;;3.65;;
59109;SDS011;44895;47.438;18.978;2023-05-10T10:16:11;11.13;;;3.42;;
59109;SDS011;44895;47.438;18.978;2023-05-10T10:19:15;5.68;;;2.83;;
59109;SDS011;44895;47.438;18.978;2023-05-10T10:22:19;5.40;;;2.83;;
59109;SDS011;44895;47.438;18.978;2023-05-10T10:25:23;5.18;;;2.35;;
59109;SDS011;44895;47.438;18.978;2023-05-10T10:28:40;7.00;;;2.75;;
59109;SDS011;44895;47.438;18.978;2023-05-10T10:31:53;6.38;;;2.67;;
59109;SDS011;44895;47.438;18.978;2023-05-10T10:35:06;5.35;;;2.22;;
59109;SDS011;44895;47.438;18.978;2023-05-10T10:38:12;6.72;;;2.67;;
59109;SDS011;44895;47.438;18.978;2023-05-10T10:41:28;4.57;;;2.15;;
59109;SDS011;44895;47.438;18.978;2023-05-10T10:44:34;4.90;;;2.03;;
59109;SDS011;44895;47.438;18.978;2023-05-10T10:47:41;4.47;;;2.05;;
59109;SDS011;44895;47.438;18.978;2023-05-10T10:50:46;6.35;;;2.58;;
59109;SDS011;44895;47.438;18.978;2023-05-10T10:53:50;5.07;;;2.25;;
59109;SDS011;44895;47.438;18.978;2023-05-10T10:57:27;4.60;;;2.50;;
59109;SDS011;44895;47.438;18.978;2023-05-10T11:00:28;4.97;;;2.10;;
59109;SDS011;44895;47.438;18.978;2023-05-10T11:03:36;4.80;;;2.00;;
59109;SDS011;44895;47.438;18.978;2023-05-10T11:06:39;6.28;;;1.95;;
59109;SDS011;44895;47.438;18.978;2023-05-10T11:09:43;3.78;;;1.92;;
59109;SDS011;44895;47.438;18.978;2023-05-10T11:12:58;5.85;;;2.30;;
59109;SDS011;44895;47.438;18.978;2023-05-10T11:16:23;5.43;;;2.20;;
59109;SDS011;44895;47.438;18.978;2023-05-10T11:19:27;5.90;;;2.40;;
59109;SDS011;44895;47.438;18.978;2023-05-10T11:22:31;5.45;;;2.15;;
59109;SDS011;44895;47.438;18.978;2023-05-10T11:25:56;5.57;;;1.98;;
59109;SDS011;44895;47.438;18.978;2023-05-10T11:28:59;7.47;;;2.47;;
59109;SDS011;44895;47.438;18.978;2023-05-10T11:32:05;4.75;;;2.17;;
59109;SDS011;44895;47.438;18.978;2023-05-10T11:35:11;4.53;;;2.28;;
59109;SDS011;44895;47.438;18.978;2023-05-10T11:38:15;5.10;;;1.77;;
59109;SDS011;44895;47.438;18.978;2023-05-10T11:41:19;5.18;;;1.80;;
59109;SDS011;44895;47.438;18.978;2023-05-10T11:44:32;3.90;;;1.20;;
59109;SDS011;44895;47.438;18.978;2023-05-10T11:47:36;3.30;;;1.35;;
59109;SDS011;44895;47.438;18.978;2023-05-10T11:50:40;4.57;;;1.80;;
59109;SDS011;44895;47.438;18.978;2023-05-10T11:53:43;4.95;;;1.77;;
59109;SDS011;44895;47.438;18.978;2023-05-10T11:56:48;8.82;;;2.33;;
59109;SDS011;44895;47.438;18.978;2023-05-10T11:59:53;3.63;;;1.40;;
59109;SDS011;44895;47.438;18.978;2023-05-10T12:02:59;4.57;;;1.73;;
59109;SDS011;44895;47.438;18.978;2023-05-10T12:06:03;4.63;;;2.22;;
59109;SDS011;44895;47.438;18.978;2023-05-10T12:09:08;5.53;;;1.95;;
59109;SDS011;44895;47.438;18.978;2023-05-10T12:12:18;3.90;;;1.70;;
59109;SDS011;44895;47.438;18.978;2023-05-10T12:15:22;4.55;;;1.77;;
59109;SDS011;44895;47.438;18.978;2023-05-10T12:18:27;3.80;;;1.45;;
59109;SDS011;44895;47.438;18.978;2023-05-10T12:21:31;2.33;;;1.20;;
59109;SDS011;44895;47.438;18.978;2023-05-10T12:24:35;4.68;;;1.67;;
59109;SDS011;44895;47.438;18.978;2023-05-10T12:27:41;3.95;;;1.30;;
59109;SDS011;44895;47.438;18.978;2023-05-10T12:30:50;4.07;;;1.50;;
59109;SDS011;44895;47.438;18.978;2023-05-10T12:33:57;4.95;;;2.10;;
59109;SDS011;44895;47.438;18.978;2023-05-10T12:37:00;3.97;;;1.70;;
59109;SDS011;44895;47.438;18.978;2023-05-10T12:40:09;4.50;;;1.67;;
59109;SDS011;44895;47.438;18.978;2023-05-10T12:43:14;3.80;;;1.77;;
59109;SDS011;44895;47.438;18.978;2023-05-10T12:46:18;3.75;;;1.63;;
59109;SDS011;44895;47.438;18.978;2023-05-10T12:49:22;5.47;;;2.05;;
59109;SDS011;44895;47.438;18.978;2023-05-10T12:52:25;2.95;;;1.40;;
59109;SDS011;44895;47.438;18.978;2023-05-10T12:55:29;7.03;;;1.98;;
59109;SDS011;44895;47.438;18.978;2023-05-10T12:58:33;4.80;;;1.30;;
59109;SDS011;44895;47.438;18.978;2023-05-10T13:01:37;2.70;;;1.25;;
59109;SDS011;44895;47.438;18.978;2023-05-10T13:04:41;4.75;;;1.70;;
59109;SDS011;44895;47.438;18.978;2023-05-10T13:07:44;5.93;;;1.10;;
59109;SDS011;44895;47.438;18.978;2023-05-10T13:10:48;4.03;;;2.00;;
59109;SDS011;44895;47.438;18.978;2023-05-10T13:13:52;4.20;;;1.73;;
59109;SDS011;44895;47.438;18.978;2023-05-10T13:16:56;2.53;;;1.17;;
59109;SDS011;44895;47.438;18.978;2023-05-10T13:19:59;3.28;;;1.35;;
59109;SDS011;44895;47.438;18.978;2023-05-10T13:23:03;3.20;;;1.13;;
59109;SDS011;44895;47.438;18.978;2023-05-10T13:26:07;3.55;;;1.15;;
59109;SDS011;44895;47.438;18.978;2023-05-10T13:29:11;2.25;;;0.95;;
59109;SDS011;44895;47.438;18.978;2023-05-10T13:32:14;3.00;;;1.30;;
59109;SDS011;44895;47.438;18.978;2023-05-10T13:35:18;3.72;;;1.67;;
59109;SDS011;44895;47.438;18.978;2023-05-10T13:38:21;2.30;;;1.20;;
59109;SDS011;44895;47.438;18.978;2023-05-10T13:41:25;7.47;;;2.17;;
59109;SDS011;44895;47.438;18.978;2023-05-10T13:44:29;3.47;;;1.45;;
59109;SDS011;44895;47.438;18.978;2023-05-10T13:47:33;4.43;;;1.38;;
59109;SDS011;44895;47.438;18.978;2023-05-10T13:50:37;2.45;;;0.90;;
59109;SDS011;44895;47.438;18.978;2023-05-10T13:53:42;4.10;;;1.40;;
59109;SDS011;44895;47.438;18.978;2023-05-10T13:56:45;3.67;;;1.17;;
59109;SDS011;44895;47.438;18.978;2023-05-10T13:59:51;3.00;;;1.27;;
59109;SDS011;44895;47.438;18.978;2023-05-10T14:02:55;3.55;;;1.30;;
59109;SDS011;44895;47.438;18.978;2023-05-10T14:05:59;5.47;;;1.45;;
59109;SDS011;44895;47.438;18.978;2023-05-10T14:09:03;3.78;;;1.50;;
59109;SDS011;44895;47.438;18.978;2023-05-10T14:12:07;4.40;;;1.30;;
59109;SDS011;44895;47.438;18.978;2023-05-10T14:15:10;2.65;;;0.93;;
59109;SDS011;44895;47.438;18.978;2023-05-10T14:18:14;4.78;;;1.55;;
59109;SDS011;44895;47.438;18.978;2023-05-10T14:21:18;2.70;;;1.20;;
59109;SDS011;44895;47.438;18.978;2023-05-10T14:24:22;3.90;;;1.50;;
59109;SDS011;44895;47.438;18.978;2023-05-10T14:27:25;3.75;;;1.58;;
59109;SDS011;44895;47.438;18.978;2023-05-10T14:30:29;4.28;;;1.20;;
59109;SDS011;44895;47.438;18.978;2023-05-10T14:33:33;3.10;;;1.27;;
59109;SDS011;44895;47.438;18.978;2023-05-10T14:36:37;1.98;;;1.02;;
59109;SDS011;44895;47.438;18.978;2023-05-10T14:39:41;3.80;;;2.03;;
59109;SDS011;44895;47.438;18.978;2023-05-10T14:42:45;2.15;;;1.10;;
59109;SDS011;44895;47.438;18.978;2023-05-10T14:45:49;4.30;;;1.20;;
59109;SDS011;44895;47.438;18.978;2023-05-10T14:48:52;4.85;;;1.05;;
59109;SDS011;44895;47.438;18.978;2023-05-10T14:51:56;2.85;;;1.23;;
59109;SDS011;44895;47.438;18.978;2023-05-10T14:55:00;3.83;;;2.08;;
59109;SDS011;44895;47.438;18.978;2023-05-10T14:58:04;2.67;;;1.08;;
59109;SDS011;44895;47.438;18.978;2023-05-10T15:01:08;4.43;;;1.70;;
59109;SDS011;44895;47.438;18.978;2023-05-10T15:04:12;3.90;;;1.27;;
59109;SDS011;44895;47.438;18.978;2023-05-10T15:07:16;2.47;;;1.13;;
59109;SDS011;44895;47.438;18.978;2023-05-10T15:10:21;2.67;;;0.98;;
59109;SDS011;44895;47.438;18.978;2023-05-10T15:13:25;4.07;;;1.42;;
59109;SDS011;44895;47.438;18.978;2023-05-10T15:16:29;2.25;;;0.98;;
59109;SDS011;44895;47.438;18.978;2023-05-10T15:19:33;3.45;;;1.30;;
59109;SDS011;44895;47.438;18.978;2023-05-10T15:22:37;4.70;;;1.08;;
59109;SDS011;44895;47.438;18.978;2023-05-10T15:25:41;2.83;;;1.13;;
59109;SDS011;44895;47.438;18.978;2023-05-10T15:28:45;2.67;;;1.10;;
59109;SDS011;44895;47.438;18.978;2023-05-10T15:31:49;2.50;;;1.02;;
59109;SDS011;44895;47.438;18.978;2023-05-10T15:34:53;5.63;;;1.80;;
59109;SDS011;44895;47.438;18.978;2023-05-10T15:37:57;7.13;;;1.25;;
59109;SDS011;44895;47.438;18.978;2023-05-10T15:41:01;6.97;;;2.13;;
59109;SDS011;44895;47.438;18.978;2023-05-10T15:44:04;4.13;;;1.00;;
59109;SDS011;44895;47.438;18.978;2023-05-10T15:47:08;4.07;;;1.92;;
59109;SDS011;44895;47.438;18.978;2023-05-10T15:50:12;3.78;;;1.25;;
59109;SDS011;44895;47.438;18.978;2023-05-10T15:53:15;4.70;;;1.55;;
59109;SDS011;44895;47.438;18.978;2023-05-10T15:56:19;4.00;;;1.70;;
59109;SDS011;44895;47.438;18.978;2023-05-10T15:59:23;4.55;;;1.75;;
59109;SDS011;44895;47.438;18.978;2023-05-10T16:02:27;2.72;;;0.95;;
59109;SDS011;44895;47.438;18.978;2023-05-10T16:05:31;4.93;;;1.52;;
59109;SDS011;44895;47.438;18.978;2023-05-10T16:08:36;3.90;;;1.30;;
59109;SDS011;44895;47.438;18.978;2023-05-10T16:11:41;8.18;;;1.63;;
59109;SDS011;44895;47.438;18.978;2023-05-10T16:14:45;4.15;;;0.93;;
59109;SDS011;44895;47.438;18.978;2023-05-10T16:17:49;3.92;;;1.20;;
59109;SDS011;44895;47.438;18.978;2023-05-10T16:20:53;3.15;;;0.80;;
59109;SDS011;44895;47.438;18.978;2023-05-10T16:23:57;5.38;;;1.35;;
59109;SDS011;44895;47.438;18.978;2023-05-10T16:27:02;2.78;;;1.05;;
59109;SDS011;44895;47.438;18.978;2023-05-10T16:30:06;4.97;;;1.42;;
59109;SDS011;44895;47.438;18.978;2023-05-10T16:33:10;3.63;;;1.25;;
59109;SDS011;44895;47.438;18.978;2023-05-10T16:36:14;4.05;;;1.40;;
59109;SDS011;44895;47.438;18.978;2023-05-10T16:39:18;4.75;;;1.80;;
59109;SDS011;44895;47.438;18.978;2023-05-10T16:42:22;3.85;;;1.17;;
59109;SDS011;44895;47.438;18.978;2023-05-10T16:45:26;4.60;;;1.80;;
59109;SDS011;44895;47.438;18.978;2023-05-10T16:48:33;3.75;;;1.30;;
59109;SDS011;44895;47.438;18.978;2023-05-10T16:51:36;4.05;;;1.30;;
59109;SDS011;44895;47.438;18.978;2023-05-10T16:54:40;5.00;;;1.40;;
59109;SDS011;44895;47.438;18.978;2023-05-10T16:57:44;6.50;;;1.30;;
59109;SDS011;44895;47.438;18.978;2023-05-10T17:00:48;3.47;;;1.23;;
59109;SDS011;44895;47.438;18.978;2023-05-10T17:03:51;4.30;;;1.33;;
59109;SDS011;44895;47.438;18.978;2023-05-10T17:06:55;3.13;;;1.23;;
59109;SDS011;44895;47.438;18.978;2023-05-10T17:09:59;3.72;;;1.73;;
59109;SDS011;44895;47.438;18.978;2023-05-10T17:13:03;3.88;;;1.73;;
59109;SDS011;44895;47.438;18.978;2023-05-10T17:16:07;4.03;;;1.52;;
59109;SDS011;44895;47.438;18.978;2023-05-10T17:19:10;4.50;;;1.35;;
59109;SDS011;44895;47.438;18.978;2023-05-10T17:22:14;3.88;;;1.52;;
59109;SDS011;44895;47.438;18.978;2023-05-10T17:25:18;4.03;;;1.67;;
59109;SDS011;44895;47.438;18.978;2023-05-10T17:28:21;4.47;;;1.90;;
59109;SDS011;44895;47.438;18.978;2023-05-10T17:31:25;4.70;;;2.20;;
59109;SDS011;44895;47.438;18.978;2023-05-10T17:34:29;4.90;;;1.50;;
59109;SDS011;44895;47.438;18.978;2023-05-10T17:37:33;6.30;;;1.35;;
59109;SDS011;44895;47.438;18.978;2023-05-10T17:40:39;4.75;;;1.60;;
59109;SDS011;44895;47.438;18.978;2023-05-10T17:43:43;4.95;;;2.05;;
59109;SDS011;44895;47.438;18.978;2023-05-10T17:46:47;4.97;;;2.13;;
59109;SDS011;44895;47.438;18.978;2023-05-10T17:49:51;4.13;;;1.67;;
59109;SDS011;44895;47.438;18.978;2023-05-10T17:52:54;7.75;;;2.75;;
59109;SDS011;44895;47.438;18.978;2023-05-10T17:55:58;6.60;;;2.20;;
59109;SDS011;44895;47.438;18.978;2023-05-10T17:59:04;4.10;;;1.75;;
59109;SDS011;44895;47.438;18.978;2023-05-10T18:02:08;4.50;;;1.67;;
59109;SDS011;44895;47.438;18.978;2023-05-10T18:05:11;8.13;;;2.00;;
59109;SDS011;44895;47.438;18.978;2023-05-10T18:08:15;5.93;;;2.72;;
59109;SDS011;44895;47.438;18.978;2023-05-10T18:11:24;4.78;;;1.98;;
59109;SDS011;44895;47.438;18.978;2023-05-10T18:14:28;4.10;;;1.77;;
59109;SDS011;44895;47.438;18.978;2023-05-10T18:17:32;3.65;;;1.75;;
59109;SDS011;44895;47.438;18.978;2023-05-10T18:20:37;4.18;;;1.70;;
59109;SDS011;44895;47.438;18.978;2023-05-10T18:23:41;4.38;;;1.80;;
59109;SDS011;44895;47.438;18.978;2023-05-10T18:26:47;9.68;;;2.22;;
59109;SDS011;44895;47.438;18.978;2023-05-10T18:29:50;4.32;;;1.63;;
59109;SDS011;44895;47.438;18.978;2023-05-10T18:32:54;6.70;;;2.28;;
59109;SDS011;44895;47.438;18.978;2023-05-10T18:35:58;5.80;;;2.40;;
59109;SDS011;44895;47.438;18.978;2023-05-10T18:39:03;6.22;;;1.73;;